sensor_id;sensor_type;location;lat;lon;timestamp;temperature;humidity
25024;DHT22;13033;50.936;5.334;2022-12-24T00:01:56;12.00;99.90
25024;DHT22;13033;50.936;5.334;2022-12-24T00:04:22;12.10;99.90
25024;DHT22;13033;50.936;5.334;2022-12-24T00:06:47;12.00;99.90
25024;DHT22;13033;50.936;5.334;2022-12-24T00:09:13;12.00;99.90
25024;DHT22;13033;50.936;5.334;2022-12-24T00:11:38;12.00;99.90
25024;DHT22;13033;50.936;5.334;2022-12-24T00:14:04;12.10;99.90
25024;DHT22;13033;50.936;5.334;2022-12-24T00:16:30;12.00;99.90
25024;DHT22;13033;50.936;5.334;2022-12-24T00:18:56;12.10;99.90
25024;DHT22;13033;50.936;5.334;2022-12-24T00:21:21;12.10;99.90
25024;DHT22;13033;50.936;5.334;2022-12-24T00:23:47;12.10;99.90
25024;DHT22;13033;50.936;5.334;2022-12-24T00:26:13;12.20;99.90
25024;DHT22;13033;50.936;5.334;2022-12-24T00:28:39;12.10;99.90
25024;DHT22;13033;50.936;5.334;2022-12-24T00:31:16;12.10;99.90
25024;DHT22;13033;50.936;5.334;2022-12-24T00:33:44;12.00;99.90
25024;DHT22;13033;50.936;5.334;2022-12-24T00:36:09;12.00;99.90
25024;DHT22;13033;50.936;5.334;2022-12-24T00:38:36;11.90;99.90
25024;DHT22;13033;50.936;5.334;2022-12-24T00:41:03;11.80;99.90
25024;DHT22;13033;50.936;5.334;2022-12-24T00:43:30;11.90;99.90
25024;DHT22;13033;50.936;5.334;2022-12-24T00:45:56;11.80;99.90
25024;DHT22;13033;50.936;5.334;2022-12-24T00:48:22;11.80;99.90
25024;DHT22;13033;50.936;5.334;2022-12-24T00:50:51;11.70;99.90
25024;DHT22;13033;50.936;5.334;2022-12-24T00:53:17;11.70;99.90
25024;DHT22;13033;50.936;5.334;2022-12-24T00:55:43;11.70;99.90
25024;DHT22;13033;50.936;5.334;2022-12-24T00:58:09;11.70;99.90
25024;DHT22;13033;50.936;5.334;2022-12-24T01:00:34;11.70;99.90
25024;DHT22;13033;50.936;5.334;2022-12-24T01:03:00;11.70;99.90
25024;DHT22;13033;50.936;5.334;2022-12-24T01:05:25;11.70;99.90
25024;DHT22;13033;50.936;5.334;2022-12-24T01:07:51;11.70;99.90
25024;DHT22;13033;50.936;5.334;2022-12-24T01:10:19;11.70;99.90
25024;DHT22;13033;50.936;5.334;2022-12-24T01:12:45;11.80;99.90
25024;DHT22;13033;50.936;5.334;2022-12-24T01:15:12;11.90;99.90
25024;DHT22;13033;50.936;5.334;2022-12-24T01:17:39;11.90;99.90
25024;DHT22;13033;50.936;5.334;2022-12-24T01:20:06;11.90;99.90
25024;DHT22;13033;50.936;5.334;2022-12-24T01:22:32;11.90;99.90
25024;DHT22;13033;50.936;5.334;2022-12-24T01:24:58;11.90;99.90
25024;DHT22;13033;50.936;5.334;2022-12-24T01:27:24;11.90;99.90
25024;DHT22;13033;50.936;5.334;2022-12-24T01:29:50;11.90;99.90
25024;DHT22;13033;50.936;5.334;2022-12-24T01:32:15;11.90;99.90
25024;DHT22;13033;50.936;5.334;2022-12-24T01:34:41;11.90;99.90
25024;DHT22;13033;50.936;5.334;2022-12-24T01:37:07;11.80;99.90
25024;DHT22;13033;50.936;5.334;2022-12-24T01:39:33;11.80;99.90
25024;DHT22;13033;50.936;5.334;2022-12-24T01:41:58;11.80;99.90
25024;DHT22;13033;50.936;5.334;2022-12-24T01:44:47;11.80;99.90
25024;DHT22;13033;50.936;5.334;2022-12-24T01:47:16;11.70;99.90
25024;DHT22;13033;50.936;5.334;2022-12-24T01:52:23;11.70;99.90
25024;DHT22;13033;50.936;5.334;2022-12-24T01:54:54;11.70;99.90
25024;DHT22;13033;50.936;5.334;2022-12-24T01:57:34;11.70;99.90
25024;DHT22;13033;50.936;5.334;2022-12-24T02:00:07;11.70;99.90
25024;DHT22;13033;50.936;5.334;2022-12-24T02:02:33;11.60;99.90
25024;DHT22;13033;50.936;5.334;2022-12-24T02:05:06;11.50;99.90
25024;DHT22;13033;50.936;5.334;2022-12-24T02:07:34;11.50;99.90
25024;DHT22;13033;50.936;5.334;2022-12-24T02:10:00;11.50;99.90
25024;DHT22;13033;50.936;5.334;2022-12-24T02:12:29;11.40;99.90
25024;DHT22;13033;50.936;5.334;2022-12-24T02:14:56;11.30;99.90
25024;DHT22;13033;50.936;5.334;2022-12-24T02:23:41;11.10;99.90
25024;DHT22;13033;50.936;5.334;2022-12-24T02:26:41;11.10;99.90
25024;DHT22;13033;50.936;5.334;2022-12-24T02:32:04;10.90;99.90
25024;DHT22;13033;50.936;5.334;2022-12-24T02:34:54;10.90;99.90
25024;DHT22;13033;50.936;5.334;2022-12-24T02:37:33;10.90;99.90
25024;DHT22;13033;50.936;5.334;2022-12-24T02:42:35;10.80;99.90
25024;DHT22;13033;50.936;5.334;2022-12-24T02:45:19;10.80;99.90
25024;DHT22;13033;50.936;5.334;2022-12-24T02:47:47;10.90;99.90
25024;DHT22;13033;50.936;5.334;2022-12-24T02:50:16;10.90;99.90
25024;DHT22;13033;50.936;5.334;2022-12-24T02:52:45;10.90;99.90
25024;DHT22;13033;50.936;5.334;2022-12-24T02:55:21;10.90;99.90
25024;DHT22;13033;50.936;5.334;2022-12-24T02:58:26;10.90;99.90
25024;DHT22;13033;50.936;5.334;2022-12-24T03:03:54;11.00;99.90
25024;DHT22;13033;50.936;5.334;2022-12-24T03:09:05;10.90;99.90
25024;DHT22;13033;50.936;5.334;2022-12-24T03:11:35;10.80;99.90
25024;DHT22;13033;50.936;5.334;2022-12-24T03:14:02;10.80;99.90
25024;DHT22;13033;50.936;5.334;2022-12-24T03:16:28;10.70;99.90
25024;DHT22;13033;50.936;5.334;2022-12-24T03:18:55;10.70;99.90
25024;DHT22;13033;50.936;5.334;2022-12-24T03:21:30;10.70;99.90
25024;DHT22;13033;50.936;5.334;2022-12-24T03:23:57;10.70;99.90
25024;DHT22;13033;50.936;5.334;2022-12-24T03:26:24;10.80;99.90
25024;DHT22;13033;50.936;5.334;2022-12-24T03:28:50;10.80;99.90
25024;DHT22;13033;50.936;5.334;2022-12-24T03:31:16;10.90;99.90
25024;DHT22;13033;50.936;5.334;2022-12-24T03:33:43;10.90;99.90
25024;DHT22;13033;50.936;5.334;2022-12-24T03:36:09;10.90;99.90
25024;DHT22;13033;50.936;5.334;2022-12-24T03:38:35;11.00;99.90
25024;DHT22;13033;50.936;5.334;2022-12-24T03:41:01;11.00;99.90
25024;DHT22;13033;50.936;5.334;2022-12-24T03:43:27;11.00;99.90
25024;DHT22;13033;50.936;5.334;2022-12-24T03:45:52;11.00;99.90
25024;DHT22;13033;50.936;5.334;2022-12-24T03:48:18;11.00;99.90
25024;DHT22;13033;50.936;5.334;2022-12-24T03:50:44;11.00;99.90
25024;DHT22;13033;50.936;5.334;2022-12-24T03:53:09;11.10;99.90
25024;DHT22;13033;50.936;5.334;2022-12-24T03:55:36;11.10;99.90
25024;DHT22;13033;50.936;5.334;2022-12-24T03:58:02;11.20;99.90
25024;DHT22;13033;50.936;5.334;2022-12-24T04:00:27;11.20;99.90
25024;DHT22;13033;50.936;5.334;2022-12-24T04:02:53;11.10;99.90
25024;DHT22;13033;50.936;5.334;2022-12-24T04:05:19;11.10;99.90
25024;DHT22;13033;50.936;5.334;2022-12-24T04:07:45;11.20;99.90
25024;DHT22;13033;50.936;5.334;2022-12-24T04:10:12;11.20;99.90
25024;DHT22;13033;50.936;5.334;2022-12-24T04:12:39;11.20;99.90
25024;DHT22;13033;50.936;5.334;2022-12-24T04:15:05;11.20;99.90
25024;DHT22;13033;50.936;5.334;2022-12-24T04:17:31;11.10;99.90
25024;DHT22;13033;50.936;5.334;2022-12-24T04:19:57;11.10;99.90
25024;DHT22;13033;50.936;5.334;2022-12-24T04:22:23;11.10;99.90
25024;DHT22;13033;50.936;5.334;2022-12-24T04:24:48;11.20;99.90
25024;DHT22;13033;50.936;5.334;2022-12-24T04:27:14;11.20;99.90
25024;DHT22;13033;50.936;5.334;2022-12-24T04:29:40;11.20;99.90
25024;DHT22;13033;50.936;5.334;2022-12-24T04:32:06;11.20;99.90
25024;DHT22;13033;50.936;5.334;2022-12-24T04:34:32;11.20;99.90
25024;DHT22;13033;50.936;5.334;2022-12-24T04:36:58;11.20;99.90
25024;DHT22;13033;50.936;5.334;2022-12-24T04:39:23;11.10;99.90
25024;DHT22;13033;50.936;5.334;2022-12-24T04:41:49;11.10;99.90
25024;DHT22;13033;50.936;5.334;2022-12-24T04:44:15;11.10;99.90
25024;DHT22;13033;50.936;5.334;2022-12-24T04:46:40;11.10;99.90
25024;DHT22;13033;50.936;5.334;2022-12-24T04:49:07;11.00;99.90
25024;DHT22;13033;50.936;5.334;2022-12-24T04:51:33;11.10;99.90
25024;DHT22;13033;50.936;5.334;2022-12-24T04:53:59;11.20;99.90
25024;DHT22;13033;50.936;5.334;2022-12-24T04:56:28;11.20;99.90
25024;DHT22;13033;50.936;5.334;2022-12-24T04:58:54;11.20;99.90
25024;DHT22;13033;50.936;5.334;2022-12-24T05:01:26;11.30;99.90
25024;DHT22;13033;50.936;5.334;2022-12-24T05:03:52;11.40;99.90
25024;DHT22;13033;50.936;5.334;2022-12-24T05:06:22;11.40;99.90
25024;DHT22;13033;50.936;5.334;2022-12-24T05:08:47;11.30;99.90
25024;DHT22;13033;50.936;5.334;2022-12-24T05:11:14;11.20;99.90
25024;DHT22;13033;50.936;5.334;2022-12-24T05:13:43;11.10;99.90
25024;DHT22;13033;50.936;5.334;2022-12-24T05:16:10;11.00;99.90
25024;DHT22;13033;50.936;5.334;2022-12-24T05:18:37;11.00;99.90
25024;DHT22;13033;50.936;5.334;2022-12-24T05:21:07;11.00;99.90
25024;DHT22;13033;50.936;5.334;2022-12-24T05:23:33;11.00;99.90
25024;DHT22;13033;50.936;5.334;2022-12-24T05:26:26;11.00;99.90
25024;DHT22;13033;50.936;5.334;2022-12-24T05:28:55;11.00;99.90
25024;DHT22;13033;50.936;5.334;2022-12-24T05:31:23;11.10;99.90
25024;DHT22;13033;50.936;5.334;2022-12-24T05:33:49;11.10;99.90
25024;DHT22;13033;50.936;5.334;2022-12-24T05:36:15;11.00;99.90
25024;DHT22;13033;50.936;5.334;2022-12-24T05:38:41;11.10;99.90
25024;DHT22;13033;50.936;5.334;2022-12-24T05:41:07;11.20;99.90
25024;DHT22;13033;50.936;5.334;2022-12-24T05:43:34;11.20;99.90
25024;DHT22;13033;50.936;5.334;2022-12-24T05:46:01;11.10;99.90
25024;DHT22;13033;50.936;5.334;2022-12-24T05:48:28;11.20;99.90
25024;DHT22;13033;50.936;5.334;2022-12-24T05:50:54;11.30;99.90
25024;DHT22;13033;50.936;5.334;2022-12-24T05:53:20;11.30;99.90
25024;DHT22;13033;50.936;5.334;2022-12-24T05:55:46;11.30;99.90
25024;DHT22;13033;50.936;5.334;2022-12-24T05:58:11;11.40;99.90
25024;DHT22;13033;50.936;5.334;2022-12-24T06:00:37;11.30;99.90
25024;DHT22;13033;50.936;5.334;2022-12-24T06:03:03;11.40;99.90
25024;DHT22;13033;50.936;5.334;2022-12-24T06:05:29;11.40;99.90
25024;DHT22;13033;50.936;5.334;2022-12-24T06:07:54;11.40;99.90
25024;DHT22;13033;50.936;5.334;2022-12-24T06:10:20;11.50;99.90
25024;DHT22;13033;50.936;5.334;2022-12-24T06:12:46;11.50;99.90
25024;DHT22;13033;50.936;5.334;2022-12-24T06:15:11;11.60;99.90
25024;DHT22;13033;50.936;5.334;2022-12-24T06:17:37;11.60;99.90
25024;DHT22;13033;50.936;5.334;2022-12-24T06:20:04;11.60;99.90
25024;DHT22;13033;50.936;5.334;2022-12-24T06:22:30;11.70;99.90
25024;DHT22;13033;50.936;5.334;2022-12-24T06:24:55;11.60;99.90
25024;DHT22;13033;50.936;5.334;2022-12-24T06:27:21;11.50;99.90
25024;DHT22;13033;50.936;5.334;2022-12-24T06:29:47;11.50;99.90
25024;DHT22;13033;50.936;5.334;2022-12-24T06:32:12;11.50;99.90
25024;DHT22;13033;50.936;5.334;2022-12-24T06:34:38;11.30;99.90
25024;DHT22;13033;50.936;5.334;2022-12-24T06:37:04;11.40;99.90
25024;DHT22;13033;50.936;5.334;2022-12-24T06:39:30;11.40;99.90
25024;DHT22;13033;50.936;5.334;2022-12-24T06:41:56;11.30;99.90
25024;DHT22;13033;50.936;5.334;2022-12-24T06:44:22;11.30;99.90
25024;DHT22;13033;50.936;5.334;2022-12-24T06:46:47;11.20;99.90
25024;DHT22;13033;50.936;5.334;2022-12-24T06:49:13;11.20;99.90
25024;DHT22;13033;50.936;5.334;2022-12-24T06:51:39;11.10;99.90
25024;DHT22;13033;50.936;5.334;2022-12-24T06:54:06;11.20;99.90
25024;DHT22;13033;50.936;5.334;2022-12-24T06:56:31;11.20;99.90
25024;DHT22;13033;50.936;5.334;2022-12-24T06:58:57;11.20;99.90
25024;DHT22;13033;50.936;5.334;2022-12-24T07:01:22;11.30;99.90
25024;DHT22;13033;50.936;5.334;2022-12-24T07:03:49;11.20;99.90
25024;DHT22;13033;50.936;5.334;2022-12-24T07:06:23;11.20;99.90
25024;DHT22;13033;50.936;5.334;2022-12-24T07:08:49;11.10;99.90
25024;DHT22;13033;50.936;5.334;2022-12-24T07:11:15;11.10;99.90
25024;DHT22;13033;50.936;5.334;2022-12-24T07:13:41;11.00;99.90
25024;DHT22;13033;50.936;5.334;2022-12-24T07:16:06;10.90;99.90
25024;DHT22;13033;50.936;5.334;2022-12-24T07:18:32;10.90;99.90
25024;DHT22;13033;50.936;5.334;2022-12-24T07:20:58;10.80;99.90
25024;DHT22;13033;50.936;5.334;2022-12-24T07:23:24;10.90;99.90
25024;DHT22;13033;50.936;5.334;2022-12-24T07:25:50;10.90;99.90
25024;DHT22;13033;50.936;5.334;2022-12-24T07:28:16;11.00;99.90
25024;DHT22;13033;50.936;5.334;2022-12-24T07:30:41;10.90;99.90
25024;DHT22;13033;50.936;5.334;2022-12-24T07:33:07;10.90;99.90
25024;DHT22;13033;50.936;5.334;2022-12-24T07:35:33;10.90;99.90
25024;DHT22;13033;50.936;5.334;2022-12-24T07:37:59;10.80;99.90
25024;DHT22;13033;50.936;5.334;2022-12-24T07:40:25;10.90;99.90
25024;DHT22;13033;50.936;5.334;2022-12-24T07:42:51;10.90;99.90
25024;DHT22;13033;50.936;5.334;2022-12-24T07:45:17;10.90;99.90
25024;DHT22;13033;50.936;5.334;2022-12-24T07:47:42;10.80;99.90
25024;DHT22;13033;50.936;5.334;2022-12-24T07:50:08;10.80;99.90
25024;DHT22;13033;50.936;5.334;2022-12-24T07:52:34;10.90;99.90
25024;DHT22;13033;50.936;5.334;2022-12-24T07:54:59;11.00;99.90
25024;DHT22;13033;50.936;5.334;2022-12-24T07:57:25;11.00;99.90
25024;DHT22;13033;50.936;5.334;2022-12-24T07:59:51;10.90;99.90
25024;DHT22;13033;50.936;5.334;2022-12-24T08:02:16;10.90;99.90
25024;DHT22;13033;50.936;5.334;2022-12-24T08:04:42;11.00;99.90
25024;DHT22;13033;50.936;5.334;2022-12-24T08:07:07;11.00;99.90
25024;DHT22;13033;50.936;5.334;2022-12-24T08:09:34;11.00;99.90
25024;DHT22;13033;50.936;5.334;2022-12-24T08:12:00;11.00;99.90
25024;DHT22;13033;50.936;5.334;2022-12-24T08:14:28;11.10;99.90
25024;DHT22;13033;50.936;5.334;2022-12-24T08:16:54;11.30;99.90
25024;DHT22;13033;50.936;5.334;2022-12-24T08:19:19;11.30;99.90
25024;DHT22;13033;50.936;5.334;2022-12-24T08:21:45;11.30;99.90
25024;DHT22;13033;50.936;5.334;2022-12-24T08:24:11;11.40;99.90
25024;DHT22;13033;50.936;5.334;2022-12-24T08:26:36;11.40;99.90
25024;DHT22;13033;50.936;5.334;2022-12-24T08:29:03;11.50;99.90
25024;DHT22;13033;50.936;5.334;2022-12-24T08:31:30;11.50;99.90
25024;DHT22;13033;50.936;5.334;2022-12-24T08:34:04;11.40;99.90
25024;DHT22;13033;50.936;5.334;2022-12-24T08:36:29;11.40;99.90
25024;DHT22;13033;50.936;5.334;2022-12-24T08:38:55;11.50;99.90
25024;DHT22;13033;50.936;5.334;2022-12-24T08:41:21;11.50;99.90
25024;DHT22;13033;50.936;5.334;2022-12-24T08:43:46;11.50;99.90
25024;DHT22;13033;50.936;5.334;2022-12-24T08:46:12;11.50;99.90
25024;DHT22;13033;50.936;5.334;2022-12-24T08:48:38;11.50;99.90
25024;DHT22;13033;50.936;5.334;2022-12-24T08:51:11;11.50;99.90
25024;DHT22;13033;50.936;5.334;2022-12-24T08:53:37;11.50;99.90
25024;DHT22;13033;50.936;5.334;2022-12-24T08:56:05;11.40;99.90
25024;DHT22;13033;50.936;5.334;2022-12-24T08:58:31;11.30;99.90
25024;DHT22;13033;50.936;5.334;2022-12-24T09:00:57;11.30;99.90
25024;DHT22;13033;50.936;5.334;2022-12-24T09:03:23;11.40;99.90
25024;DHT22;13033;50.936;5.334;2022-12-24T09:05:48;11.30;99.90
25024;DHT22;13033;50.936;5.334;2022-12-24T09:08:14;11.30;99.90
25024;DHT22;13033;50.936;5.334;2022-12-24T09:10:39;11.30;99.90
25024;DHT22;13033;50.936;5.334;2022-12-24T09:13:05;11.30;99.90
25024;DHT22;13033;50.936;5.334;2022-12-24T09:15:31;11.50;99.90
25024;DHT22;13033;50.936;5.334;2022-12-24T09:17:57;11.50;99.90
25024;DHT22;13033;50.936;5.334;2022-12-24T09:20:22;11.50;99.90
25024;DHT22;13033;50.936;5.334;2022-12-24T09:22:48;11.40;99.90
25024;DHT22;13033;50.936;5.334;2022-12-24T09:25:14;11.40;99.90
25024;DHT22;13033;50.936;5.334;2022-12-24T09:27:40;11.40;99.90
25024;DHT22;13033;50.936;5.334;2022-12-24T09:30:06;11.50;99.90
25024;DHT22;13033;50.936;5.334;2022-12-24T09:32:32;11.40;99.90
25024;DHT22;13033;50.936;5.334;2022-12-24T09:34:58;11.40;99.90
25024;DHT22;13033;50.936;5.334;2022-12-24T09:37:24;11.50;99.90
25024;DHT22;13033;50.936;5.334;2022-12-24T09:39:50;11.50;99.90
25024;DHT22;13033;50.936;5.334;2022-12-24T09:42:49;11.40;99.90
25024;DHT22;13033;50.936;5.334;2022-12-24T09:45:21;11.60;99.90
25024;DHT22;13033;50.936;5.334;2022-12-24T09:47:49;11.70;99.90
25024;DHT22;13033;50.936;5.334;2022-12-24T09:50:30;11.60;99.90
25024;DHT22;13033;50.936;5.334;2022-12-24T09:52:57;11.80;99.90
25024;DHT22;13033;50.936;5.334;2022-12-24T09:55:29;11.80;99.90
25024;DHT22;13033;50.936;5.334;2022-12-24T09:58:00;11.90;99.90
25024;DHT22;13033;50.936;5.334;2022-12-24T10:00:29;11.90;99.90
25024;DHT22;13033;50.936;5.334;2022-12-24T10:02:56;12.10;99.90
25024;DHT22;13033;50.936;5.334;2022-12-24T10:05:40;12.00;99.90
25024;DHT22;13033;50.936;5.334;2022-12-24T10:14:47;12.20;99.90
25024;DHT22;13033;50.936;5.334;2022-12-24T10:25:37;12.10;99.90
25024;DHT22;13033;50.936;5.334;2022-12-24T10:28:16;12.20;99.90
25024;DHT22;13033;50.936;5.334;2022-12-24T10:30:46;12.30;99.90
25024;DHT22;13033;50.936;5.334;2022-12-24T10:33:20;12.40;99.90
25024;DHT22;13033;50.936;5.334;2022-12-24T10:35:52;12.40;99.90
25024;DHT22;13033;50.936;5.334;2022-12-24T10:38:19;12.30;99.90
25024;DHT22;13033;50.936;5.334;2022-12-24T10:40:47;12.30;99.90
25024;DHT22;13033;50.936;5.334;2022-12-24T10:43:20;12.40;99.90
25024;DHT22;13033;50.936;5.334;2022-12-24T10:45:54;12.50;99.90
25024;DHT22;13033;50.936;5.334;2022-12-24T10:48:44;12.60;99.90
25024;DHT22;13033;50.936;5.334;2022-12-24T10:54:13;12.90;99.90
25024;DHT22;13033;50.936;5.334;2022-12-24T10:56:46;12.80;99.90
25024;DHT22;13033;50.936;5.334;2022-12-24T11:02:23;12.70;99.90
25024;DHT22;13033;50.936;5.334;2022-12-24T11:04:49;12.70;99.90
25024;DHT22;13033;50.936;5.334;2022-12-24T11:07:20;12.70;99.90
25024;DHT22;13033;50.936;5.334;2022-12-24T11:10:03;12.70;99.90
25024;DHT22;13033;50.936;5.334;2022-12-24T11:12:36;12.80;99.90
25024;DHT22;13033;50.936;5.334;2022-12-24T11:15:05;12.80;99.90
25024;DHT22;13033;50.936;5.334;2022-12-24T11:17:32;12.90;99.90
25024;DHT22;13033;50.936;5.334;2022-12-24T11:19:59;12.90;99.90
25024;DHT22;13033;50.936;5.334;2022-12-24T11:22:26;12.70;99.90
25024;DHT22;13033;50.936;5.334;2022-12-24T11:27:43;12.70;99.90
25024;DHT22;13033;50.936;5.334;2022-12-24T11:32:45;12.70;99.90
25024;DHT22;13033;50.936;5.334;2022-12-24T11:35:20;12.60;99.90
25024;DHT22;13033;50.936;5.334;2022-12-24T11:38:09;12.60;99.90
25024;DHT22;13033;50.936;5.334;2022-12-24T11:40:35;12.70;99.90
25024;DHT22;13033;50.936;5.334;2022-12-24T11:43:02;12.80;99.90
25024;DHT22;13033;50.936;5.334;2022-12-24T11:45:31;13.00;99.90
25024;DHT22;13033;50.936;5.334;2022-12-24T11:47:58;12.90;99.90
25024;DHT22;13033;50.936;5.334;2022-12-24T11:50:31;12.90;99.90
25024;DHT22;13033;50.936;5.334;2022-12-24T11:55:44;13.00;99.90
25024;DHT22;13033;50.936;5.334;2022-12-24T12:01:17;13.10;99.90
25024;DHT22;13033;50.936;5.334;2022-12-24T12:03:48;13.40;99.90
25024;DHT22;13033;50.936;5.334;2022-12-24T12:06:39;13.60;99.90
25024;DHT22;13033;50.936;5.334;2022-12-24T12:09:16;13.50;99.90
25024;DHT22;13033;50.936;5.334;2022-12-24T12:11:45;13.60;99.90
25024;DHT22;13033;50.936;5.334;2022-12-24T12:14:26;13.70;99.90
25024;DHT22;13033;50.936;5.334;2022-12-24T12:20:06;13.70;99.90
25024;DHT22;13033;50.936;5.334;2022-12-24T12:28:06;13.40;99.90
25024;DHT22;13033;50.936;5.334;2022-12-24T12:30:36;13.40;99.90
25024;DHT22;13033;50.936;5.334;2022-12-24T12:33:15;13.40;99.90
25024;DHT22;13033;50.936;5.334;2022-12-24T12:35:44;13.40;99.90
25024;DHT22;13033;50.936;5.334;2022-12-24T12:38:24;13.60;99.90
25024;DHT22;13033;50.936;5.334;2022-12-24T12:43:55;13.60;99.90
25024;DHT22;13033;50.936;5.334;2022-12-24T12:46:41;13.60;99.90
25024;DHT22;13033;50.936;5.334;2022-12-24T12:58:01;13.50;99.90
25024;DHT22;13033;50.936;5.334;2022-12-24T13:00:30;13.40;99.90
25024;DHT22;13033;50.936;5.334;2022-12-24T13:20:25;13.50;99.90
25024;DHT22;13033;50.936;5.334;2022-12-24T13:23:00;13.60;99.90
25024;DHT22;13033;50.936;5.334;2022-12-24T13:25:39;13.70;99.90
25024;DHT22;13033;50.936;5.334;2022-12-24T13:30:51;13.30;99.90
25024;DHT22;13033;50.936;5.334;2022-12-24T13:36:11;13.20;99.90
25024;DHT22;13033;50.936;5.334;2022-12-24T13:38:51;13.20;99.90
25024;DHT22;13033;50.936;5.334;2022-12-24T13:44:17;13.20;99.90
25024;DHT22;13033;50.936;5.334;2022-12-24T13:47:24;13.20;99.90
25024;DHT22;13033;50.936;5.334;2022-12-24T13:49:51;13.10;99.90
25024;DHT22;13033;50.936;5.334;2022-12-24T13:52:31;13.20;99.90
25024;DHT22;13033;50.936;5.334;2022-12-24T13:57:36;13.20;99.90
25024;DHT22;13033;50.936;5.334;2022-12-24T14:00:23;13.30;99.90
25024;DHT22;13033;50.936;5.334;2022-12-24T14:07:55;13.60;99.90
25024;DHT22;13033;50.936;5.334;2022-12-24T14:10:43;13.60;99.90
25024;DHT22;13033;50.936;5.334;2022-12-24T14:16:12;13.30;99.90
25024;DHT22;13033;50.936;5.334;2022-12-24T14:18:41;13.40;99.90
25024;DHT22;13033;50.936;5.334;2022-12-24T14:21:17;13.30;99.90
25024;DHT22;13033;50.936;5.334;2022-12-24T14:24:12;13.30;99.90
25024;DHT22;13033;50.936;5.334;2022-12-24T14:27:27;13.40;99.90
25024;DHT22;13033;50.936;5.334;2022-12-24T14:29:42;13.30;99.90
25024;DHT22;13033;50.936;5.334;2022-12-24T14:32:15;13.20;99.90
25024;DHT22;13033;50.936;5.334;2022-12-24T14:34:41;13.10;99.90
25024;DHT22;13033;50.936;5.334;2022-12-24T14:37:09;13.10;99.90
25024;DHT22;13033;50.936;5.334;2022-12-24T14:39:40;12.80;99.90
25024;DHT22;13033;50.936;5.334;2022-12-24T14:42:27;12.80;99.90
25024;DHT22;13033;50.936;5.334;2022-12-24T14:50:35;12.90;99.90
25024;DHT22;13033;50.936;5.334;2022-12-24T14:55:49;12.60;99.90
25024;DHT22;13033;50.936;5.334;2022-12-24T14:58:32;12.50;99.90
25024;DHT22;13033;50.936;5.334;2022-12-24T15:01:02;12.70;99.90
25024;DHT22;13033;50.936;5.334;2022-12-24T15:03:30;12.70;99.90
25024;DHT22;13033;50.936;5.334;2022-12-24T15:06:07;12.60;99.90
25024;DHT22;13033;50.936;5.334;2022-12-24T15:08:46;12.60;99.90
25024;DHT22;13033;50.936;5.334;2022-12-24T15:11:20;12.40;99.90
25024;DHT22;13033;50.936;5.334;2022-12-24T15:13:49;12.40;99.90
25024;DHT22;13033;50.936;5.334;2022-12-24T15:16:29;12.20;99.90
25024;DHT22;13033;50.936;5.334;2022-12-24T15:19:01;12.10;99.90
25024;DHT22;13033;50.936;5.334;2022-12-24T15:21:35;12.20;99.90
25024;DHT22;13033;50.936;5.334;2022-12-24T15:24:02;12.20;99.90
25024;DHT22;13033;50.936;5.334;2022-12-24T15:26:33;12.10;99.90
25024;DHT22;13033;50.936;5.334;2022-12-24T15:29:01;12.10;99.90
25024;DHT22;13033;50.936;5.334;2022-12-24T15:31:31;12.00;99.90
25024;DHT22;13033;50.936;5.334;2022-12-24T15:33:57;11.90;99.90
25024;DHT22;13033;50.936;5.334;2022-12-24T15:36:31;11.90;99.90
25024;DHT22;13033;50.936;5.334;2022-12-24T15:39:02;12.10;99.90
25024;DHT22;13033;50.936;5.334;2022-12-24T15:41:35;12.00;99.90
25024;DHT22;13033;50.936;5.334;2022-12-24T15:44:03;12.00;99.90
25024;DHT22;13033;50.936;5.334;2022-12-24T15:46:30;11.90;99.90
25024;DHT22;13033;50.936;5.334;2022-12-24T15:48:58;11.80;99.90
25024;DHT22;13033;50.936;5.334;2022-12-24T15:51:35;11.70;99.90
25024;DHT22;13033;50.936;5.334;2022-12-24T15:54:09;11.70;99.90
25024;DHT22;13033;50.936;5.334;2022-12-24T15:56:39;11.70;99.90
25024;DHT22;13033;50.936;5.334;2022-12-24T16:01:41;11.60;99.90
25024;DHT22;13033;50.936;5.334;2022-12-24T16:04:20;11.60;99.90
25024;DHT22;13033;50.936;5.334;2022-12-24T16:07:08;11.40;99.90
25024;DHT22;13033;50.936;5.334;2022-12-24T16:09:42;11.30;99.90
25024;DHT22;13033;50.936;5.334;2022-12-24T16:12:21;11.30;99.90
25024;DHT22;13033;50.936;5.334;2022-12-24T16:14:50;11.30;99.90
25024;DHT22;13033;50.936;5.334;2022-12-24T16:17:21;11.20;99.90
25024;DHT22;13033;50.936;5.334;2022-12-24T16:19:49;11.30;99.90
25024;DHT22;13033;50.936;5.334;2022-12-24T16:22:20;11.20;99.90
25024;DHT22;13033;50.936;5.334;2022-12-24T16:25:24;11.20;99.90
25024;DHT22;13033;50.936;5.334;2022-12-24T16:27:51;11.20;99.90
25024;DHT22;13033;50.936;5.334;2022-12-24T16:30:18;11.10;99.90
25024;DHT22;13033;50.936;5.334;2022-12-24T16:32:46;11.10;99.90
25024;DHT22;13033;50.936;5.334;2022-12-24T16:35:24;11.20;99.90
25024;DHT22;13033;50.936;5.334;2022-12-24T16:37:50;11.10;99.90
25024;DHT22;13033;50.936;5.334;2022-12-24T16:40:16;11.00;99.90
25024;DHT22;13033;50.936;5.334;2022-12-24T16:42:42;11.00;99.90
25024;DHT22;13033;50.936;5.334;2022-12-24T16:45:30;11.10;99.90
25024;DHT22;13033;50.936;5.334;2022-12-24T16:47:57;11.10;99.90
25024;DHT22;13033;50.936;5.334;2022-12-24T16:50:23;10.90;99.90
25024;DHT22;13033;50.936;5.334;2022-12-24T16:52:48;11.00;99.90
25024;DHT22;13033;50.936;5.334;2022-12-24T16:55:14;10.90;99.90
25024;DHT22;13033;50.936;5.334;2022-12-24T16:57:41;10.90;99.90
25024;DHT22;13033;50.936;5.334;2022-12-24T17:00:13;10.90;99.90
25024;DHT22;13033;50.936;5.334;2022-12-24T17:02:39;11.10;99.90
25024;DHT22;13033;50.936;5.334;2022-12-24T17:05:05;11.10;99.90
25024;DHT22;13033;50.936;5.334;2022-12-24T17:07:31;11.10;99.90
25024;DHT22;13033;50.936;5.334;2022-12-24T17:09:56;11.10;99.90
25024;DHT22;13033;50.936;5.334;2022-12-24T17:12:22;11.20;99.90
25024;DHT22;13033;50.936;5.334;2022-12-24T17:14:48;11.10;99.90
25024;DHT22;13033;50.936;5.334;2022-12-24T17:17:32;11.10;99.90
25024;DHT22;13033;50.936;5.334;2022-12-24T17:19:57;11.00;99.90
25024;DHT22;13033;50.936;5.334;2022-12-24T17:22:24;11.00;99.90
25024;DHT22;13033;50.936;5.334;2022-12-24T17:24:52;11.00;99.90
25024;DHT22;13033;50.936;5.334;2022-12-24T17:27:18;11.00;99.90
25024;DHT22;13033;50.936;5.334;2022-12-24T17:29:44;10.90;99.90
25024;DHT22;13033;50.936;5.334;2022-12-24T17:32:09;11.00;99.90
25024;DHT22;13033;50.936;5.334;2022-12-24T17:34:35;10.90;99.90
25024;DHT22;13033;50.936;5.334;2022-12-24T17:37:01;10.80;99.90
25024;DHT22;13033;50.936;5.334;2022-12-24T17:39:27;10.80;99.90
25024;DHT22;13033;50.936;5.334;2022-12-24T17:41:52;10.80;99.90
25024;DHT22;13033;50.936;5.334;2022-12-24T17:44:18;10.80;99.90